Terminal Aerodrome Forecast
Issued by NWS Medford, OR

Current Version | Previous Version | Text Only | Print | Product List | Glossary On
Versions: 1 2 3 4 5 6 7 8 9 10 11 12 13 14 15 16
000
FTUS46 KMFR 040543
TAFMFR
TAF
KMFR 040543Z 0406/0506 VRB03KT P6SM FEW060
     FM042000 32007KT P6SM VCSH SCT040 BKN060
     FM042200 31012G16KT P6SM VCSH SCT040 BKN060
     FM050400 35006KT P6SM SCT040 SCT050=

USA.gov is the U.S. government's official web portal to all federal, state and local government web resources and services.